createdAt,value
2022-10-22T00:00:18.112Z,100820.97
2022-10-22T00:02:44.822Z,100825.06
2022-10-22T00:05:11.619Z,100824.88
2022-10-22T00:07:39.996Z,100823.66
2022-10-22T00:10:08.555Z,100829.00
2022-10-22T00:12:35.567Z,100822.84
2022-10-22T00:15:02.314Z,100825.06
2022-10-22T00:17:28.891Z,100819.34
2022-10-22T00:19:55.801Z,100827.56
2022-10-22T00:22:22.379Z,100834.75
2022-10-22T00:24:50.459Z,100834.94
2022-10-22T00:27:17.110Z,100840.47
2022-10-22T00:29:43.770Z,100839.66
2022-10-22T00:32:10.436Z,100841.72
2022-10-22T00:34:37.240Z,100844.59
2022-10-22T00:37:03.860Z,100843.97
2022-10-22T00:39:30.735Z,100836.16
2022-10-22T00:41:59.305Z,100834.50
2022-10-22T00:45:02.094Z,100837.41
2022-10-22T00:47:32.195Z,100834.09
2022-10-22T00:50:00.121Z,100837.16
2022-10-22T00:52:27.681Z,100839.25
2022-10-22T00:54:54.734Z,100835.94
2022-10-22T00:57:25.797Z,100837.16
2022-10-22T00:59:58.279Z,100841.28
2022-10-22T01:02:25.007Z,100843.31
2022-10-22T01:04:51.658Z,100846.19
2022-10-22T01:07:22.192Z,100846.41
2022-10-22T01:10:00.425Z,100851.94
2022-10-22T01:12:42.780Z,100847.63
2022-10-22T01:15:20.137Z,100844.13
2022-10-22T01:17:55.827Z,100843.31
2022-10-22T01:20:37.891Z,100847.81
2022-10-22T01:23:17.595Z,100841.84
2022-10-22T01:25:50.479Z,100842.91
2022-10-22T01:28:26.321Z,100835.91
2022-10-22T01:30:58.094Z,100832.63
2022-10-22T01:33:27.580Z,100834.66
2022-10-22T01:35:55.239Z,100833.00
2022-10-22T01:38:24.844Z,100834.06
2022-10-22T01:40:55.529Z,100828.09
2022-10-22T01:43:22.212Z,100830.13
2022-10-22T01:45:51.697Z,100834.84
2022-10-22T01:48:34.809Z,100835.06
2022-10-22T01:51:24.456Z,100836.25
2022-10-22T01:53:57.216Z,100834.19
2022-10-22T01:56:50.365Z,100831.06
2022-10-22T01:59:28.006Z,100837.84
2022-10-22T02:01:59.585Z,100847.69
2022-10-22T02:04:33.753Z,100839.69
2022-10-22T02:07:05.290Z,100834.34
2022-10-22T02:09:36.160Z,100833.53
2022-10-22T02:14:41.376Z,100837.84
2022-10-22T02:17:11.575Z,100839.88
2022-10-22T02:19:46.345Z,100842.75
2022-10-22T02:22:13.521Z,100830.66
2022-10-22T02:24:40.566Z,100837.59
2022-10-22T02:27:12.611Z,100840.28
2022-10-22T02:29:42.381Z,100829.00
2022-10-22T02:32:12.295Z,100830.00
2022-10-22T02:34:41.138Z,100825.69
2022-10-22T02:37:08.432Z,100835.75
2022-10-22T02:39:37.000Z,100837.81
2022-10-22T02:42:03.997Z,100831.63
2022-10-22T02:44:30.915Z,100830.19
2022-10-22T02:46:58.796Z,100829.56
2022-10-22T02:49:25.431Z,100832.41
2022-10-22T02:51:53.415Z,100835.91
2022-10-22T02:54:19.985Z,100833.22
2022-10-22T02:56:46.833Z,100832.22
2022-10-22T02:59:13.430Z,100829.56
2022-10-22T03:01:40.270Z,100826.88
2022-10-22T03:04:08.151Z,100827.91
2022-10-22T03:06:35.538Z,100829.75
2022-10-22T03:09:03.653Z,100837.75
2022-10-22T03:11:30.320Z,100829.56
2022-10-22T03:13:56.953Z,100826.06
2022-10-22T03:16:23.523Z,100834.06
2022-10-22T03:18:50.342Z,100823.19
2022-10-22T03:21:31.888Z,100835.53
2022-10-22T03:24:01.405Z,100832.84
2022-10-22T03:26:29.920Z,100838.19
2022-10-22T03:28:56.728Z,100835.31
2022-10-22T03:31:23.374Z,100839.84
2022-10-22T03:33:50.038Z,100835.72
2022-10-22T03:36:16.842Z,100844.53
2022-10-22T03:38:43.478Z,100843.72
2022-10-22T03:41:10.883Z,100848.03
2022-10-22T03:43:39.751Z,100848.03
2022-10-22T03:46:06.225Z,100851.09
2022-10-22T03:48:32.868Z,100853.75
2022-10-22T03:50:59.507Z,100847.41
2022-10-22T03:53:26.382Z,100854.56
2022-10-22T03:55:52.991Z,100862.56
2022-10-22T03:58:19.563Z,100859.09
2022-10-22T04:00:47.646Z,100862.56
2022-10-22T04:03:14.283Z,100861.56
2022-10-22T04:05:40.988Z,100862.19
2022-10-22T04:08:07.657Z,100871.03
2022-10-22T04:10:34.351Z,100871.66
2022-10-22T04:13:01.365Z,100873.09
2022-10-22T04:15:29.200Z,100877.41
2022-10-22T04:17:57.252Z,100869.22
2022-10-22T04:20:23.879Z,100873.72
2022-10-22T04:22:50.571Z,100876.38
2022-10-22T04:25:17.436Z,100873.72
2022-10-22T04:27:44.120Z,100865.53
2022-10-22T04:30:11.842Z,100876.59
2022-10-22T04:32:38.679Z,100874.56
2022-10-22T04:35:08.013Z,100877.69
2022-10-22T04:37:34.666Z,100871.09
2022-10-22T04:40:01.667Z,100875.88
2022-10-22T04:42:28.324Z,100874.44
2022-10-22T04:44:55.159Z,100872.00
2022-10-22T04:47:21.973Z,100874.09
2022-10-22T04:49:48.576Z,100871.00
2022-10-22T04:52:16.645Z,100869.59
2022-10-22T04:54:43.245Z,100871.66
2022-10-22T04:57:09.873Z,100867.53
2022-10-22T04:59:36.515Z,100874.34
2022-10-22T05:02:03.439Z,100886.06
2022-10-22T05:04:30.125Z,100880.31
2022-10-22T05:06:56.785Z,100876.22
2022-10-22T05:09:24.697Z,100881.16
2022-10-22T05:11:52.914Z,100879.72
2022-10-22T05:14:21.142Z,100880.34
2022-10-22T05:16:49.068Z,100882.81
2022-10-22T05:19:18.419Z,100880.53
2022-10-22T05:21:45.191Z,100888.16
2022-10-22T05:24:12.037Z,100883.22
2022-10-22T05:26:40.233Z,100891.88
2022-10-22T05:29:07.013Z,100889.63
2022-10-22T05:31:33.815Z,100884.88
2022-10-22T05:34:00.467Z,100885.50
2022-10-22T05:36:27.642Z,100887.97
2022-10-22T05:38:54.472Z,100892.91
2022-10-22T05:41:22.641Z,100897.84
2022-10-22T05:43:50.856Z,100899.31
2022-10-22T05:46:22.459Z,100891.06
2022-10-22T05:48:51.552Z,100899.69
2022-10-22T05:51:19.259Z,100910.19
2022-10-22T05:53:45.973Z,100901.16
2022-10-22T05:56:15.177Z,100912.25
2022-10-22T05:58:42.706Z,100906.69
2022-10-22T06:01:14.065Z,100914.50
2022-10-22T06:03:40.860Z,100912.66
2022-10-22T06:06:27.742Z,100912.44
2022-10-22T06:08:55.933Z,100915.94
2022-10-22T06:11:23.821Z,100916.56
2022-10-22T06:13:51.230Z,100923.56
2022-10-22T06:16:19.399Z,100930.56
2022-10-22T06:18:46.077Z,100928.50
2022-10-22T06:21:15.162Z,100934.44
2022-10-22T06:23:42.892Z,100935.06
2022-10-22T06:26:10.002Z,100935.91
2022-10-22T06:28:37.181Z,100935.47
2022-10-22T06:31:05.041Z,100941.25
2022-10-22T06:33:34.375Z,100948.25
2022-10-22T06:36:07.662Z,100947.00
2022-10-22T06:38:34.669Z,100954.81
2022-10-22T06:41:04.045Z,100959.75
2022-10-22T06:43:31.052Z,100960.38
2022-10-22T06:46:00.935Z,100963.66
2022-10-22T06:48:27.829Z,100969.66
2022-10-22T06:50:56.249Z,100978.31
2022-10-22T06:53:23.009Z,100986.34
2022-10-22T06:55:49.712Z,100992.28
2022-10-22T06:58:16.850Z,100994.75
2022-10-22T07:00:46.031Z,100986.72
2022-10-22T07:03:13.923Z,100994.75
2022-10-22T07:05:41.231Z,100992.91
2022-10-22T07:08:09.970Z,100998.06
2022-10-22T07:10:36.582Z,100991.88
2022-10-22T07:13:03.197Z,100997.03
2022-10-22T07:15:31.169Z,101008.31
2022-10-22T07:17:57.759Z,101008.31
2022-10-22T07:20:24.566Z,101005.25
2022-10-22T07:22:53.739Z,101013.09
2022-10-22T07:25:24.303Z,101018.81
2022-10-22T07:27:51.343Z,101026.44
2022-10-22T07:30:21.470Z,101025.22
2022-10-22T07:32:48.072Z,101027.69
2022-10-22T07:35:15.193Z,101037.16
2022-10-22T07:37:42.213Z,101031.59
2022-10-22T07:40:10.282Z,101040.03
2022-10-22T07:42:38.245Z,101043.31
2022-10-22T07:45:05.662Z,101038.59
2022-10-22T07:47:32.360Z,101042.69
2022-10-22T07:49:59.214Z,101037.97
2022-10-22T07:52:25.910Z,101042.91
2022-10-22T07:54:52.563Z,101043.50
2022-10-22T07:57:19.170Z,101050.50
2022-10-22T07:59:47.212Z,101051.97
2022-10-22T08:02:14.207Z,101054.44
2022-10-22T08:04:41.086Z,101067.41
2022-10-22T08:07:07.740Z,101066.38
2022-10-22T08:09:36.086Z,101061.44
2022-10-22T08:12:02.996Z,101061.22
2022-10-22T08:14:30.991Z,101063.47
2022-10-22T08:16:58.907Z,101056.91
2022-10-22T08:19:25.786Z,101065.53
2022-10-22T08:21:55.242Z,101062.44
2022-10-22T08:24:22.383Z,101076.22
2022-10-22T08:26:49.053Z,101078.50
2022-10-22T08:29:15.829Z,101081.56
2022-10-22T08:31:42.497Z,101085.50
2022-10-22T08:34:10.926Z,101090.41
2022-10-22T08:36:37.540Z,101092.88
2022-10-22T08:39:04.848Z,101095.75
2022-10-22T08:41:36.388Z,101095.34
2022-10-22T08:44:31.663Z,101087.72
2022-10-22T08:47:26.009Z,101097.81
2022-10-22T08:49:57.000Z,101098.19
2022-10-22T08:52:23.583Z,101098.44
2022-10-22T08:54:53.777Z,101108.72
2022-10-22T08:57:34.207Z,101112.44
2022-10-22T09:00:06.285Z,101114.69
2022-10-22T09:02:44.114Z,101114.03
2022-10-22T09:05:23.545Z,101117.34
2022-10-22T09:07:50.980Z,101122.28
2022-10-22T09:10:20.080Z,101118.34
2022-10-22T09:12:48.001Z,101119.59
2022-10-22T09:15:15.822Z,101133.38
2022-10-22T09:17:53.209Z,101132.16
2022-10-22T09:20:28.591Z,101132.75
2022-10-22T09:23:05.510Z,101146.16
2022-10-22T09:25:36.801Z,101150.25
2022-10-22T09:28:05.942Z,101151.09
2022-10-22T09:30:36.359Z,101151.91
2022-10-22T09:33:11.359Z,101155.22
2022-10-22T09:35:46.306Z,101155.59
2022-10-22T09:38:16.551Z,101161.78
2022-10-22T09:40:45.479Z,101154.56
2022-10-22T09:43:13.838Z,101161.59
2022-10-22T09:45:44.237Z,101165.50
2022-10-22T09:48:18.729Z,101164.06
2022-10-22T09:50:50.480Z,101174.56
2022-10-22T09:53:20.018Z,101177.03
2022-10-22T09:55:51.505Z,101184.03
2022-10-22T09:58:21.970Z,101180.31
2022-10-22T10:00:53.445Z,101186.09
2022-10-22T10:03:22.897Z,101191.22
2022-10-22T10:05:54.441Z,101195.56
2022-10-22T10:08:21.363Z,101198.03
2022-10-22T10:10:51.172Z,101212.28
2022-10-22T10:13:47.034Z,101213.94
2022-10-22T10:16:27.527Z,101204.84
2022-10-22T10:19:09.939Z,101217.22
2022-10-22T10:21:44.447Z,101218.25
2022-10-22T10:24:22.637Z,101220.75
2022-10-22T10:26:58.222Z,101218.66
2022-10-22T10:32:30.143Z,101234.94
2022-10-22T10:35:07.248Z,101221.09
2022-10-22T10:37:41.569Z,101235.97
2022-10-22T10:40:20.424Z,101228.28
2022-10-22T10:42:55.449Z,101230.56
2022-10-22T10:45:30.489Z,101240.84
2022-10-22T10:48:21.577Z,101235.28
2022-10-22T10:51:02.043Z,101239.41
2022-10-22T10:53:44.661Z,101240.81
2022-10-22T10:56:25.201Z,101230.50
2022-10-22T10:59:00.378Z,101226.56
2022-10-22T11:01:37.513Z,101230.47
2022-10-22T11:04:28.521Z,101229.03
2022-10-22T11:07:11.143Z,101228.41
2022-10-22T11:09:50.819Z,101233.31
2022-10-22T11:12:23.605Z,101237.03
2022-10-22T11:14:59.266Z,101229.34
2022-10-22T11:17:33.776Z,101222.28
2022-10-22T11:20:06.250Z,101234.06
2022-10-22T11:22:40.290Z,101237.72
2022-10-22T11:25:20.323Z,101233.13
2022-10-22T11:27:51.866Z,101233.91
2022-10-22T11:30:20.979Z,101242.75
2022-10-22T11:32:50.672Z,101243.75
2022-10-22T11:35:25.654Z,101241.22
2022-10-22T11:37:55.876Z,101247.81
2022-10-22T11:40:34.459Z,101238.03
2022-10-22T11:43:04.080Z,101245.28
2022-10-22T11:45:35.544Z,101240.53
2022-10-22T11:48:12.363Z,101242.75
2022-10-22T11:50:52.835Z,101246.88
2022-10-22T11:53:30.790Z,101246.41
2022-10-22T11:56:05.086Z,101245.16
2022-10-22T11:58:42.654Z,101243.09
2022-10-22T12:01:42.925Z,101236.00
2022-10-22T12:04:22.294Z,101234.75
2022-10-22T12:07:00.673Z,101240.53
2022-10-22T12:09:31.979Z,101240.31
2022-10-22T12:12:14.722Z,101238.44
2022-10-22T12:14:53.714Z,101242.78
2022-10-22T12:17:22.029Z,101235.75
2022-10-22T12:19:51.141Z,101236.59
2022-10-22T12:22:24.154Z,101234.50
2022-10-22T12:24:53.976Z,101228.66
2022-10-22T12:27:24.898Z,101236.31
2022-10-22T12:29:55.539Z,101240.41
2022-10-22T12:32:22.539Z,101245.34
2022-10-22T12:34:50.962Z,101238.31
2022-10-22T12:37:18.851Z,101242.66
2022-10-22T12:39:46.463Z,101238.72
2022-10-22T12:42:15.603Z,101246.53
2022-10-22T12:44:45.067Z,101257.91
2022-10-22T12:47:15.862Z,101257.69
2022-10-22T12:49:46.842Z,101264.09
2022-10-22T12:52:20.261Z,101248.78
2022-10-22T12:54:48.891Z,101256.41
2022-10-22T12:57:19.577Z,101259.50
2022-10-22T12:59:50.198Z,101259.28
2022-10-22T13:02:21.723Z,101259.63
2022-10-22T13:05:16.146Z,101255.06
2022-10-22T13:07:46.482Z,101259.41
2022-10-22T13:10:22.812Z,101254.66
2022-10-22T13:12:51.371Z,101260.25
2022-10-22T13:15:33.902Z,101262.31
2022-10-22T13:18:16.050Z,101261.88
2022-10-22T13:20:53.797Z,101258.16
2022-10-22T13:23:22.891Z,101253.34
2022-10-22T13:25:59.530Z,101255.81
2022-10-22T13:28:27.498Z,101261.22
2022-10-22T13:30:57.793Z,101261.00
2022-10-22T13:33:27.404Z,101259.13
2022-10-22T13:35:55.454Z,101258.91
2022-10-22T13:38:24.522Z,101253.06
2022-10-22T13:40:54.129Z,101259.50
2022-10-22T13:43:25.154Z,101254.09
2022-10-22T13:45:56.354Z,101257.63
2022-10-22T13:48:25.605Z,101255.75
2022-10-22T13:50:52.851Z,101260.09
2022-10-22T13:53:22.025Z,101262.78
2022-10-22T13:55:55.111Z,101262.78
2022-10-22T13:58:29.555Z,101270.03
2022-10-22T14:00:59.879Z,101267.34
2022-10-22T14:03:30.196Z,101271.69
2022-10-22T14:05:57.473Z,101270.63
2022-10-22T14:08:26.299Z,101263.19
2022-10-22T14:10:53.721Z,101272.66
2022-10-22T14:13:23.637Z,101268.91
2022-10-22T14:15:52.165Z,101275.72
2022-10-22T14:18:25.623Z,101270.13
2022-10-22T14:20:54.986Z,101271.75
2022-10-22T14:23:24.078Z,101277.97
2022-10-22T14:25:51.224Z,101267.19
2022-10-22T14:28:18.094Z,101265.94
2022-10-22T14:30:45.650Z,101264.06
2022-10-22T14:33:15.242Z,101263.84
2022-10-22T14:35:43.327Z,101270.06
2022-10-22T14:38:10.281Z,101264.66
2022-10-22T14:40:38.989Z,101268.19
2022-10-22T14:43:06.378Z,101273.31
2022-10-22T14:45:33.289Z,101267.94
2022-10-22T14:48:00.176Z,101263.38
2022-10-22T14:50:26.907Z,101271.47
2022-10-22T14:52:59.014Z,101275.44
2022-10-22T14:55:27.146Z,101278.13
2022-10-22T14:57:54.004Z,101287.03
2022-10-22T15:00:21.617Z,101284.56
2022-10-22T15:02:48.627Z,101287.03
2022-10-22T15:05:16.019Z,101293.44
2022-10-22T15:07:43.585Z,101296.16
2022-10-22T15:10:11.900Z,101300.69
2022-10-22T15:12:38.555Z,101303.63
2022-10-22T15:15:06.354Z,101296.59
2022-10-22T15:17:33.050Z,101296.78
2022-10-22T15:20:04.130Z,101300.31
2022-10-22T15:22:31.745Z,101307.34
2022-10-22T15:24:58.406Z,101310.03
2022-10-22T15:27:26.473Z,101313.56
2022-10-22T15:29:53.236Z,101312.72
2022-10-22T15:32:19.930Z,101316.25
2022-10-22T15:34:46.558Z,101313.56
2022-10-22T15:37:14.050Z,101312.72
2022-10-22T15:39:41.557Z,101316.47
2022-10-22T15:42:08.883Z,101324.78
2022-10-22T15:44:39.759Z,101327.69
2022-10-22T15:47:07.542Z,101323.56
2022-10-22T15:49:36.251Z,101320.25
2022-10-22T15:52:03.728Z,101323.19
2022-10-22T15:54:31.076Z,101330.66
2022-10-22T15:56:59.552Z,101329.00
2022-10-22T15:59:26.554Z,101325.72
2022-10-22T16:01:54.601Z,101328.88
2022-10-22T16:04:23.300Z,101325.78
2022-10-22T16:06:52.725Z,101325.16
2022-10-22T16:09:21.758Z,101323.16
2022-10-22T16:11:49.546Z,101324.03
2022-10-22T16:14:18.088Z,101322.44
2022-10-22T16:16:45.913Z,101325.19
2022-10-22T16:19:16.043Z,101324.44
2022-10-22T16:21:42.739Z,101328.22
2022-10-22T16:24:09.662Z,101331.13
2022-10-22T16:26:36.575Z,101327.66
2022-10-22T16:29:04.502Z,101327.72
2022-10-22T16:31:31.368Z,101326.94
2022-10-22T16:33:58.156Z,101330.72
2022-10-22T16:36:26.336Z,101334.47
2022-10-22T16:38:53.101Z,101339.06
2022-10-22T16:41:21.590Z,101334.56
2022-10-22T16:43:49.928Z,101337.28
2022-10-22T16:46:17.646Z,101339.16
2022-10-22T16:48:45.546Z,101342.91
2022-10-22T16:51:14.350Z,101344.81
2022-10-22T16:53:42.661Z,101348.34
2022-10-22T16:56:10.376Z,101351.06
2022-10-22T16:58:37.645Z,101350.41
2022-10-22T17:01:06.529Z,101353.13
2022-10-22T17:03:33.221Z,101359.53
2022-10-22T17:06:00.342Z,101363.06
2022-10-22T17:08:27.305Z,101364.94
2022-10-22T17:10:55.353Z,101369.50
2022-10-22T17:13:22.175Z,101367.44
2022-10-22T17:15:49.005Z,101362.88
2022-10-22T17:18:15.777Z,101366.41
2022-10-22T17:20:43.339Z,101367.66
2022-10-22T17:23:10.142Z,101369.72
2022-10-22T17:25:43.358Z,101367.25
2022-10-22T17:28:11.564Z,101379.63
2022-10-22T17:30:40.741Z,101379.38
2022-10-22T17:33:07.967Z,101382.69
2022-10-22T17:35:35.516Z,101384.13
2022-10-22T17:38:02.567Z,101374.22
2022-10-22T17:40:30.779Z,101387.38
2022-10-22T17:42:57.423Z,101383.66
2022-10-22T17:45:25.453Z,101385.88
2022-10-22T17:47:52.332Z,101391.88
2022-10-22T17:50:19.330Z,101392.28
2022-10-22T17:52:46.169Z,101394.72
2022-10-22T17:55:13.574Z,101396.16
2022-10-22T17:57:40.520Z,101390.38
2022-10-22T18:00:08.348Z,101386.47
2022-10-22T18:02:36.409Z,101381.91
2022-10-22T18:05:03.221Z,101385.16
2022-10-22T18:07:29.822Z,101384.75
2022-10-22T18:09:56.557Z,101388.84
2022-10-22T18:12:23.466Z,101397.09
2022-10-22T18:14:50.255Z,101390.47
2022-10-22T18:17:16.995Z,101396.84
2022-10-22T18:19:44.924Z,101394.59
2022-10-22T18:22:14.667Z,101397.84
2022-10-22T18:24:41.839Z,101393.09
2022-10-22T18:27:08.611Z,101401.53
2022-10-22T18:29:35.309Z,101395.72
2022-10-22T18:32:03.782Z,101396.94
2022-10-22T18:34:32.510Z,101400.88
2022-10-22T18:37:00.563Z,101402.06
2022-10-22T18:39:27.374Z,101402.47
2022-10-22T18:41:54.775Z,101398.34
2022-10-22T18:44:22.935Z,101394.19
2022-10-22T18:46:49.667Z,101398.13
2022-10-22T18:49:18.475Z,101391.28
2022-10-22T18:51:46.333Z,101400.75
2022-10-22T18:54:28.882Z,101400.94
2022-10-22T18:57:02.565Z,101408.31
2022-10-22T18:59:30.042Z,101410.38
2022-10-22T19:02:00.353Z,101412.44
2022-10-22T19:04:31.002Z,101403.75
2022-10-22T19:06:58.121Z,101408.28
2022-10-22T19:09:26.581Z,101408.44
2022-10-22T19:11:53.320Z,101403.50
2022-10-22T19:14:21.110Z,101404.69
2022-10-22T19:16:48.200Z,101399.94
2022-10-22T19:19:18.095Z,101396.63
2022-10-22T19:21:44.985Z,101397.00
2022-10-22T19:24:13.706Z,101397.41
2022-10-22T19:26:41.944Z,101401.47
2022-10-22T19:29:08.747Z,101397.38
2022-10-22T19:31:35.312Z,101389.53
2022-10-22T19:34:02.611Z,101394.25
2022-10-22T19:36:31.480Z,101387.22
2022-10-22T19:38:59.339Z,101383.94
2022-10-22T19:41:28.228Z,101388.66
2022-10-22T19:43:57.932Z,101394.19
2022-10-22T19:46:25.851Z,101389.66
2022-10-22T19:48:53.580Z,101389.84
2022-10-22T19:51:22.526Z,101378.56
2022-10-22T19:53:50.322Z,101374.22
2022-10-22T19:56:21.870Z,101374.22
2022-10-22T19:58:48.572Z,101379.56
2022-10-22T20:01:18.170Z,101377.72
2022-10-22T20:03:45.313Z,101381.22
2022-10-22T20:06:14.563Z,101385.53
2022-10-22T20:08:41.540Z,101382.03
2022-10-22T20:11:10.879Z,101382.25
2022-10-22T20:16:10.045Z,101395.78
2022-10-22T20:18:38.974Z,101389.81
2022-10-22T20:21:09.163Z,101393.50
2022-10-22T20:23:36.068Z,101395.56
2022-10-22T20:26:04.264Z,101388.91
2022-10-22T20:28:31.192Z,101389.31
2022-10-22T20:30:57.843Z,101396.69
2022-10-22T20:33:24.512Z,101396.69
2022-10-22T20:36:02.838Z,101398.53
2022-10-22T20:38:29.523Z,101396.88
2022-10-22T20:41:00.876Z,101393.56
2022-10-22T20:43:27.449Z,101392.94
2022-10-22T20:45:54.641Z,101393.13
2022-10-22T20:48:21.692Z,101396.00
2022-10-22T20:50:48.345Z,101394.16
2022-10-22T20:53:16.978Z,101395.81
2022-10-22T20:55:43.844Z,101395.16
2022-10-22T20:58:10.518Z,101388.81
2022-10-22T21:00:39.285Z,101397.84
2022-10-22T21:03:05.748Z,101399.88
2022-10-22T21:05:32.462Z,101400.69
2022-10-22T21:07:59.122Z,101400.69
2022-10-22T21:10:32.267Z,101414.06
2022-10-22T21:12:59.470Z,101406.25
2022-10-22T21:15:27.022Z,101408.09
2022-10-22T21:17:54.184Z,101411.78
2022-10-22T21:20:23.792Z,101408.28
2022-10-22T21:22:52.452Z,101407.44
2022-10-22T21:25:19.515Z,101406.44
2022-10-22T21:27:47.471Z,101405.22
2022-10-22T21:30:14.106Z,101410.56
2022-10-22T21:32:41.082Z,101411.59
2022-10-22T21:35:08.351Z,101419.59
2022-10-22T21:37:40.671Z,101423.28
2022-10-22T21:40:08.987Z,101420.81
2022-10-22T21:42:35.659Z,101419.16
2022-10-22T21:45:06.173Z,101415.47
2022-10-22T21:47:35.756Z,101400.44
2022-10-22T21:50:02.407Z,101404.97
2022-10-22T21:52:29.090Z,101409.28
2022-10-22T21:54:55.704Z,101411.97
2022-10-22T21:57:22.381Z,101409.09
2022-10-22T21:59:48.935Z,101400.91
2022-10-22T22:02:17.387Z,101404.41
2022-10-22T22:04:44.268Z,101413.22
2022-10-22T22:07:10.812Z,101407.69
2022-10-22T22:09:37.575Z,101412.03
2022-10-22T22:12:04.450Z,101411.84
2022-10-22T22:14:32.671Z,101412.03
2022-10-22T22:17:01.783Z,101410.19
2022-10-22T22:19:29.914Z,101412.84
2022-10-22T22:21:56.466Z,101409.53
2022-10-22T22:24:23.220Z,101406.88
2022-10-22T22:26:49.843Z,101407.69
2022-10-22T22:29:16.582Z,101406.88
2022-10-22T22:31:43.657Z,101392.50
2022-10-22T22:34:12.875Z,101390.84
2022-10-22T22:36:42.900Z,101390.00
2022-10-22T22:39:12.361Z,101391.66
2022-10-22T22:41:39.233Z,101397.00
2022-10-22T22:44:06.495Z,101382.63
2022-10-22T22:46:34.147Z,101379.97
2022-10-22T22:49:01.044Z,101378.13
2022-10-22T22:51:31.012Z,101370.09
2022-10-22T22:54:00.197Z,101370.09
2022-10-22T22:56:28.346Z,101372.78
2022-10-22T22:58:56.426Z,101370.75
2022-10-22T23:01:25.186Z,101368.06
2022-10-22T23:03:53.172Z,101368.44
2022-10-22T23:06:19.951Z,101365.78
2022-10-22T23:08:49.154Z,101369.91
2022-10-22T23:11:17.648Z,101363.75
2022-10-22T23:13:44.738Z,101352.22
2022-10-22T23:16:14.698Z,101359.59
2022-10-22T23:18:42.135Z,101361.25
2022-10-22T23:21:13.838Z,101356.75
2022-10-22T23:23:44.038Z,101362.09
2022-10-22T23:26:11.460Z,101349.94
2022-10-22T23:28:42.536Z,101349.94
2022-10-22T23:31:12.602Z,101343.56
2022-10-22T23:33:39.278Z,101340.91
2022-10-22T23:36:09.165Z,101344.59
2022-10-22T23:38:37.077Z,101346.25
2022-10-22T23:41:06.894Z,101351.41
2022-10-22T23:43:36.153Z,101349.38
2022-10-22T23:46:05.368Z,101353.69
2022-10-22T23:48:31.975Z,101359.03
2022-10-22T23:51:06.356Z,101351.03
2022-10-22T23:53:33.088Z,101362.72
2022-10-22T23:56:04.483Z,101365.41
2022-10-22T23:58:33.764Z,101363.75
